sensor_id;sensor_type;location;lat;lon;timestamp;P1;durP1;ratioP1;P2;durP2;ratioP2
78344;SDS011;67620;51.134;6.548;2023-07-13T00:01:13;2.97;;;1.10;;
78344;SDS011;67620;51.134;6.548;2023-07-13T00:03:39;1.73;;;0.98;;
78344;SDS011;67620;51.134;6.548;2023-07-13T00:06:06;2.50;;;1.33;;
78344;SDS011;67620;51.134;6.548;2023-07-13T00:08:33;1.77;;;0.90;;
78344;SDS011;67620;51.134;6.548;2023-07-13T00:10:59;1.80;;;1.10;;
78344;SDS011;67620;51.134;6.548;2023-07-13T00:13:25;2.42;;;0.90;;
78344;SDS011;67620;51.134;6.548;2023-07-13T00:15:51;2.17;;;1.05;;
78344;SDS011;67620;51.134;6.548;2023-07-13T00:18:18;1.90;;;1.00;;
78344;SDS011;67620;51.134;6.548;2023-07-13T00:20:44;2.25;;;0.90;;
78344;SDS011;67620;51.134;6.548;2023-07-13T00:23:10;2.20;;;1.10;;
78344;SDS011;67620;51.134;6.548;2023-07-13T00:25:35;2.25;;;1.00;;
78344;SDS011;67620;51.134;6.548;2023-07-13T00:28:01;2.72;;;1.10;;
78344;SDS011;67620;51.134;6.548;2023-07-13T00:30:27;2.03;;;0.85;;
78344;SDS011;67620;51.134;6.548;2023-07-13T00:32:52;1.98;;;0.70;;
78344;SDS011;67620;51.134;6.548;2023-07-13T00:35:18;2.25;;;1.23;;
78344;SDS011;67620;51.134;6.548;2023-07-13T00:37:43;1.75;;;0.90;;
78344;SDS011;67620;51.134;6.548;2023-07-13T00:40:10;2.45;;;1.00;;
78344;SDS011;67620;51.134;6.548;2023-07-13T00:42:37;2.15;;;1.00;;
78344;SDS011;67620;51.134;6.548;2023-07-13T00:47:40;2.00;;;0.98;;
78344;SDS011;67620;51.134;6.548;2023-07-13T00:50:06;3.85;;;1.08;;
78344;SDS011;67620;51.134;6.548;2023-07-13T00:52:35;1.30;;;0.73;;
78344;SDS011;67620;51.134;6.548;2023-07-13T00:55:03;2.70;;;1.08;;
78344;SDS011;67620;51.134;6.548;2023-07-13T00:57:30;3.17;;;1.10;;
78344;SDS011;67620;51.134;6.548;2023-07-13T00:59:57;2.25;;;1.00;;
78344;SDS011;67620;51.134;6.548;2023-07-13T01:02:25;2.03;;;0.93;;
78344;SDS011;67620;51.134;6.548;2023-07-13T01:04:53;1.30;;;0.80;;
78344;SDS011;67620;51.134;6.548;2023-07-13T01:07:18;2.13;;;1.10;;
78344;SDS011;67620;51.134;6.548;2023-07-13T01:09:44;1.70;;;0.90;;
78344;SDS011;67620;51.134;6.548;2023-07-13T01:12:10;2.05;;;0.90;;
78344;SDS011;67620;51.134;6.548;2023-07-13T01:14:36;1.95;;;1.08;;
78344;SDS011;67620;51.134;6.548;2023-07-13T01:17:02;1.88;;;1.02;;
78344;SDS011;67620;51.134;6.548;2023-07-13T01:19:42;1.38;;;0.88;;
78344;SDS011;67620;51.134;6.548;2023-07-13T01:24:36;1.83;;;0.98;;
78344;SDS011;67620;51.134;6.548;2023-07-13T01:27:03;2.75;;;1.10;;
78344;SDS011;67620;51.134;6.548;2023-07-13T01:29:31;1.60;;;0.93;;
78344;SDS011;67620;51.134;6.548;2023-07-13T01:31:58;1.90;;;0.90;;
78344;SDS011;67620;51.134;6.548;2023-07-13T01:34:25;1.17;;;0.77;;
78344;SDS011;67620;51.134;6.548;2023-07-13T01:36:51;2.58;;;0.70;;
78344;SDS011;67620;51.134;6.548;2023-07-13T01:39:18;1.52;;;0.70;;
78344;SDS011;67620;51.134;6.548;2023-07-13T01:41:47;1.17;;;0.70;;
78344;SDS011;67620;51.134;6.548;2023-07-13T01:44:12;2.25;;;0.82;;
78344;SDS011;67620;51.134;6.548;2023-07-13T01:46:38;1.70;;;0.90;;
78344;SDS011;67620;51.134;6.548;2023-07-13T01:49:03;1.35;;;0.90;;
78344;SDS011;67620;51.134;6.548;2023-07-13T01:51:29;1.52;;;0.80;;
78344;SDS011;67620;51.134;6.548;2023-07-13T01:53:54;1.38;;;0.68;;
78344;SDS011;67620;51.134;6.548;2023-07-13T01:56:20;1.42;;;0.80;;
78344;SDS011;67620;51.134;6.548;2023-07-13T01:58:45;1.83;;;0.80;;
78344;SDS011;67620;51.134;6.548;2023-07-13T02:01:11;1.63;;;1.00;;
78344;SDS011;67620;51.134;6.548;2023-07-13T02:03:36;1.17;;;0.80;;
78344;SDS011;67620;51.134;6.548;2023-07-13T02:06:02;1.38;;;0.82;;
78344;SDS011;67620;51.134;6.548;2023-07-13T02:08:28;1.40;;;0.80;;
78344;SDS011;67620;51.134;6.548;2023-07-13T02:10:53;1.60;;;0.90;;
78344;SDS011;67620;51.134;6.548;2023-07-13T02:13:19;1.65;;;0.88;;
78344;SDS011;67620;51.134;6.548;2023-07-13T02:15:44;1.80;;;0.70;;
78344;SDS011;67620;51.134;6.548;2023-07-13T02:18:10;1.95;;;0.70;;
78344;SDS011;67620;51.134;6.548;2023-07-13T02:20:35;1.67;;;0.93;;
78344;SDS011;67620;51.134;6.548;2023-07-13T02:23:01;1.55;;;0.70;;
78344;SDS011;67620;51.134;6.548;2023-07-13T02:25:27;2.03;;;1.02;;
78344;SDS011;67620;51.134;6.548;2023-07-13T02:27:52;1.23;;;0.77;;
78344;SDS011;67620;51.134;6.548;2023-07-13T02:30:18;1.15;;;0.73;;
78344;SDS011;67620;51.134;6.548;2023-07-13T02:32:44;2.10;;;1.00;;
78344;SDS011;67620;51.134;6.548;2023-07-13T02:35:09;1.90;;;0.75;;
78344;SDS011;67620;51.134;6.548;2023-07-13T02:37:35;1.25;;;0.70;;
78344;SDS011;67620;51.134;6.548;2023-07-13T02:40:00;1.30;;;0.80;;
78344;SDS011;67620;51.134;6.548;2023-07-13T02:42:33;1.15;;;0.70;;
78344;SDS011;67620;51.134;6.548;2023-07-13T02:44:58;1.25;;;0.70;;
78344;SDS011;67620;51.134;6.548;2023-07-13T02:47:24;1.50;;;0.80;;
78344;SDS011;67620;51.134;6.548;2023-07-13T02:49:49;2.83;;;1.00;;
78344;SDS011;67620;51.134;6.548;2023-07-13T02:52:15;1.20;;;0.75;;
78344;SDS011;67620;51.134;6.548;2023-07-13T02:54:40;1.38;;;0.70;;
78344;SDS011;67620;51.134;6.548;2023-07-13T02:57:06;1.17;;;0.80;;
78344;SDS011;67620;51.134;6.548;2023-07-13T02:59:31;2.25;;;0.90;;
78344;SDS011;67620;51.134;6.548;2023-07-13T03:01:57;1.30;;;0.70;;
78344;SDS011;67620;51.134;6.548;2023-07-13T03:04:22;1.83;;;0.77;;
78344;SDS011;67620;51.134;6.548;2023-07-13T03:06:48;1.63;;;0.98;;
78344;SDS011;67620;51.134;6.548;2023-07-13T03:09:13;1.02;;;0.60;;
78344;SDS011;67620;51.134;6.548;2023-07-13T03:11:39;1.08;;;0.70;;
78344;SDS011;67620;51.134;6.548;2023-07-13T03:14:04;1.17;;;0.73;;
78344;SDS011;67620;51.134;6.548;2023-07-13T03:16:30;1.00;;;0.50;;
78344;SDS011;67620;51.134;6.548;2023-07-13T03:18:55;1.27;;;0.75;;
78344;SDS011;67620;51.134;6.548;2023-07-13T03:21:21;1.42;;;0.80;;
78344;SDS011;67620;51.134;6.548;2023-07-13T03:23:47;1.60;;;0.90;;
78344;SDS011;67620;51.134;6.548;2023-07-13T03:26:14;1.58;;;0.70;;
78344;SDS011;67620;51.134;6.548;2023-07-13T03:28:42;1.75;;;0.70;;
78344;SDS011;67620;51.134;6.548;2023-07-13T03:31:10;1.02;;;0.60;;
78344;SDS011;67620;51.134;6.548;2023-07-13T03:33:41;1.35;;;0.70;;
78344;SDS011;67620;51.134;6.548;2023-07-13T03:36:07;2.17;;;0.80;;
78344;SDS011;67620;51.134;6.548;2023-07-13T03:38:35;2.03;;;0.88;;
78344;SDS011;67620;51.134;6.548;2023-07-13T03:41:01;2.17;;;0.80;;
78344;SDS011;67620;51.134;6.548;2023-07-13T03:43:26;1.20;;;0.80;;
78344;SDS011;67620;51.134;6.548;2023-07-13T03:45:52;2.30;;;0.90;;
78344;SDS011;67620;51.134;6.548;2023-07-13T03:48:17;1.20;;;0.60;;
78344;SDS011;67620;51.134;6.548;2023-07-13T03:50:43;1.48;;;0.70;;
78344;SDS011;67620;51.134;6.548;2023-07-13T03:53:08;1.05;;;0.68;;
78344;SDS011;67620;51.134;6.548;2023-07-13T03:55:34;2.17;;;0.88;;
78344;SDS011;67620;51.134;6.548;2023-07-13T03:58:05;1.17;;;0.60;;
78344;SDS011;67620;51.134;6.548;2023-07-13T04:00:51;2.22;;;0.93;;
78344;SDS011;67620;51.134;6.548;2023-07-13T04:03:16;2.00;;;0.68;;
78344;SDS011;67620;51.134;6.548;2023-07-13T04:05:42;1.98;;;0.80;;
78344;SDS011;67620;51.134;6.548;2023-07-13T04:08:07;0.80;;;0.60;;
78344;SDS011;67620;51.134;6.548;2023-07-13T04:10:33;0.88;;;0.50;;
78344;SDS011;67620;51.134;6.548;2023-07-13T04:12:58;1.58;;;0.60;;
78344;SDS011;67620;51.134;6.548;2023-07-13T04:15:24;1.92;;;0.75;;
78344;SDS011;67620;51.134;6.548;2023-07-13T04:17:49;1.23;;;0.65;;
78344;SDS011;67620;51.134;6.548;2023-07-13T04:20:15;1.33;;;0.73;;
78344;SDS011;67620;51.134;6.548;2023-07-13T04:22:40;1.42;;;0.63;;
78344;SDS011;67620;51.134;6.548;2023-07-13T04:25:06;1.55;;;0.70;;
78344;SDS011;67620;51.134;6.548;2023-07-13T04:27:32;1.48;;;0.80;;
78344;SDS011;67620;51.134;6.548;2023-07-13T04:29:57;1.27;;;0.73;;
78344;SDS011;67620;51.134;6.548;2023-07-13T04:32:23;1.15;;;0.70;;
78344;SDS011;67620;51.134;6.548;2023-07-13T04:34:48;1.70;;;0.68;;
78344;SDS011;67620;51.134;6.548;2023-07-13T04:37:18;1.42;;;0.60;;
78344;SDS011;67620;51.134;6.548;2023-07-13T04:39:43;1.15;;;0.60;;
78344;SDS011;67620;51.134;6.548;2023-07-13T04:42:09;1.10;;;0.70;;
78344;SDS011;67620;51.134;6.548;2023-07-13T04:44:34;1.10;;;0.70;;
78344;SDS011;67620;51.134;6.548;2023-07-13T04:47:00;0.95;;;0.60;;
78344;SDS011;67620;51.134;6.548;2023-07-13T04:49:25;0.60;;;0.40;;
78344;SDS011;67620;51.134;6.548;2023-07-13T04:51:51;1.45;;;0.70;;
78344;SDS011;67620;51.134;6.548;2023-07-13T04:54:16;1.73;;;0.65;;
78344;SDS011;67620;51.134;6.548;2023-07-13T04:56:42;1.00;;;0.68;;
78344;SDS011;67620;51.134;6.548;2023-07-13T04:59:07;1.63;;;0.80;;
78344;SDS011;67620;51.134;6.548;2023-07-13T05:01:33;1.35;;;0.60;;
78344;SDS011;67620;51.134;6.548;2023-07-13T05:03:59;1.10;;;0.60;;
78344;SDS011;67620;51.134;6.548;2023-07-13T05:06:24;1.35;;;0.70;;
78344;SDS011;67620;51.134;6.548;2023-07-13T05:08:50;1.23;;;0.70;;
78344;SDS011;67620;51.134;6.548;2023-07-13T05:11:15;1.73;;;0.68;;
78344;SDS011;67620;51.134;6.548;2023-07-13T05:13:43;1.13;;;0.60;;
78344;SDS011;67620;51.134;6.548;2023-07-13T05:16:08;0.65;;;0.50;;
78344;SDS011;67620;51.134;6.548;2023-07-13T05:18:34;1.45;;;0.70;;
78344;SDS011;67620;51.134;6.548;2023-07-13T05:21:07;1.00;;;0.70;;
78344;SDS011;67620;51.134;6.548;2023-07-13T05:23:34;1.08;;;0.60;;
78344;SDS011;67620;51.134;6.548;2023-07-13T05:26:00;0.98;;;0.60;;
78344;SDS011;67620;51.134;6.548;2023-07-13T05:28:27;1.50;;;0.75;;
78344;SDS011;67620;51.134;6.548;2023-07-13T05:30:52;1.00;;;0.70;;
78344;SDS011;67620;51.134;6.548;2023-07-13T05:33:19;1.20;;;0.63;;
78344;SDS011;67620;51.134;6.548;2023-07-13T05:35:45;1.17;;;0.70;;
78344;SDS011;67620;51.134;6.548;2023-07-13T05:38:10;1.25;;;0.52;;
78344;SDS011;67620;51.134;6.548;2023-07-13T05:40:36;1.17;;;0.80;;
78344;SDS011;67620;51.134;6.548;2023-07-13T05:43:02;1.40;;;0.57;;
78344;SDS011;67620;51.134;6.548;2023-07-13T05:45:27;1.55;;;0.70;;
78344;SDS011;67620;51.134;6.548;2023-07-13T05:47:53;1.88;;;0.80;;
78344;SDS011;67620;51.134;6.548;2023-07-13T05:50:18;1.00;;;0.60;;
78344;SDS011;67620;51.134;6.548;2023-07-13T05:52:44;1.70;;;0.55;;
78344;SDS011;67620;51.134;6.548;2023-07-13T05:55:09;1.08;;;0.60;;
78344;SDS011;67620;51.134;6.548;2023-07-13T05:57:35;1.40;;;0.68;;
78344;SDS011;67620;51.134;6.548;2023-07-13T06:00:00;1.85;;;0.80;;
78344;SDS011;67620;51.134;6.548;2023-07-13T06:02:26;1.67;;;0.50;;
78344;SDS011;67620;51.134;6.548;2023-07-13T06:04:52;0.93;;;0.60;;
78344;SDS011;67620;51.134;6.548;2023-07-13T06:07:17;1.58;;;0.73;;
78344;SDS011;67620;51.134;6.548;2023-07-13T06:09:43;1.58;;;0.60;;
78344;SDS011;67620;51.134;6.548;2023-07-13T06:12:09;1.10;;;0.60;;
78344;SDS011;67620;51.134;6.548;2023-07-13T06:14:34;1.13;;;0.50;;
78344;SDS011;67620;51.134;6.548;2023-07-13T06:17:00;1.48;;;0.63;;
78344;SDS011;67620;51.134;6.548;2023-07-13T06:19:25;0.80;;;0.50;;
78344;SDS011;67620;51.134;6.548;2023-07-13T06:21:51;1.35;;;0.70;;
78344;SDS011;67620;51.134;6.548;2023-07-13T06:24:16;1.10;;;0.73;;
78344;SDS011;67620;51.134;6.548;2023-07-13T06:26:42;0.73;;;0.43;;
78344;SDS011;67620;51.134;6.548;2023-07-13T06:29:07;0.98;;;0.50;;
78344;SDS011;67620;51.134;6.548;2023-07-13T06:31:33;1.23;;;0.63;;
78344;SDS011;67620;51.134;6.548;2023-07-13T06:33:58;1.15;;;0.57;;
78344;SDS011;67620;51.134;6.548;2023-07-13T06:36:24;1.10;;;0.70;;
78344;SDS011;67620;51.134;6.548;2023-07-13T06:38:49;0.80;;;0.52;;
78344;SDS011;67620;51.134;6.548;2023-07-13T06:41:15;1.45;;;0.70;;
78344;SDS011;67620;51.134;6.548;2023-07-13T06:43:40;1.75;;;0.80;;
78344;SDS011;67620;51.134;6.548;2023-07-13T06:46:06;1.38;;;0.70;;
78344;SDS011;67620;51.134;6.548;2023-07-13T06:48:31;1.15;;;0.57;;
78344;SDS011;67620;51.134;6.548;2023-07-13T06:50:57;1.50;;;0.70;;
78344;SDS011;67620;51.134;6.548;2023-07-13T06:53:23;0.82;;;0.55;;
78344;SDS011;67620;51.134;6.548;2023-07-13T06:55:48;1.00;;;0.60;;
78344;SDS011;67620;51.134;6.548;2023-07-13T06:58:15;0.88;;;0.57;;
78344;SDS011;67620;51.134;6.548;2023-07-13T07:00:41;0.70;;;0.50;;
78344;SDS011;67620;51.134;6.548;2023-07-13T07:03:07;1.30;;;0.60;;
78344;SDS011;67620;51.134;6.548;2023-07-13T07:05:33;1.38;;;0.70;;
78344;SDS011;67620;51.134;6.548;2023-07-13T07:07:58;1.13;;;0.60;;
78344;SDS011;67620;51.134;6.548;2023-07-13T07:10:24;1.25;;;0.68;;
78344;SDS011;67620;51.134;6.548;2023-07-13T07:12:50;1.08;;;0.50;;
78344;SDS011;67620;51.134;6.548;2023-07-13T07:15:15;0.98;;;0.60;;
78344;SDS011;67620;51.134;6.548;2023-07-13T07:17:41;1.00;;;0.60;;
78344;SDS011;67620;51.134;6.548;2023-07-13T07:20:07;0.85;;;0.50;;
78344;SDS011;67620;51.134;6.548;2023-07-13T07:22:33;1.95;;;0.60;;
78344;SDS011;67620;51.134;6.548;2023-07-13T07:24:58;1.10;;;0.70;;
78344;SDS011;67620;51.134;6.548;2023-07-13T07:27:24;1.35;;;0.63;;
78344;SDS011;67620;51.134;6.548;2023-07-13T07:29:50;0.95;;;0.60;;
78344;SDS011;67620;51.134;6.548;2023-07-13T07:32:15;1.00;;;0.60;;
78344;SDS011;67620;51.134;6.548;2023-07-13T07:34:41;1.98;;;0.70;;
78344;SDS011;67620;51.134;6.548;2023-07-13T07:37:09;0.98;;;0.60;;
78344;SDS011;67620;51.134;6.548;2023-07-13T07:39:36;0.85;;;0.47;;
78344;SDS011;67620;51.134;6.548;2023-07-13T07:42:02;0.95;;;0.50;;
78344;SDS011;67620;51.134;6.548;2023-07-13T07:44:27;1.67;;;0.80;;
78344;SDS011;67620;51.134;6.548;2023-07-13T07:46:53;0.98;;;0.60;;
78344;SDS011;67620;51.134;6.548;2023-07-13T07:49:19;0.88;;;0.47;;
78344;SDS011;67620;51.134;6.548;2023-07-13T07:51:45;0.95;;;0.50;;
78344;SDS011;67620;51.134;6.548;2023-07-13T07:54:10;1.20;;;0.60;;
78344;SDS011;67620;51.134;6.548;2023-07-13T07:56:36;1.38;;;0.55;;
78344;SDS011;67620;51.134;6.548;2023-07-13T07:59:01;1.08;;;0.55;;
78344;SDS011;67620;51.134;6.548;2023-07-13T08:01:27;0.90;;;0.55;;
78344;SDS011;67620;51.134;6.548;2023-07-13T08:03:52;1.52;;;0.70;;
78344;SDS011;67620;51.134;6.548;2023-07-13T08:06:18;0.82;;;0.50;;
78344;SDS011;67620;51.134;6.548;2023-07-13T08:08:45;0.73;;;0.40;;
78344;SDS011;67620;51.134;6.548;2023-07-13T08:11:10;1.33;;;0.60;;
78344;SDS011;67620;51.134;6.548;2023-07-13T08:13:36;1.25;;;0.60;;
78344;SDS011;67620;51.134;6.548;2023-07-13T08:16:03;0.90;;;0.50;;
78344;SDS011;67620;51.134;6.548;2023-07-13T08:18:30;1.27;;;0.77;;
78344;SDS011;67620;51.134;6.548;2023-07-13T08:20:55;0.93;;;0.55;;
78344;SDS011;67620;51.134;6.548;2023-07-13T08:23:22;1.02;;;0.60;;
78344;SDS011;67620;51.134;6.548;2023-07-13T08:25:51;1.23;;;0.70;;
78344;SDS011;67620;51.134;6.548;2023-07-13T08:28:17;1.25;;;0.63;;
78344;SDS011;67620;51.134;6.548;2023-07-13T08:30:43;1.15;;;0.70;;
78344;SDS011;67620;51.134;6.548;2023-07-13T08:33:09;1.40;;;0.57;;
78344;SDS011;67620;51.134;6.548;2023-07-13T08:35:34;1.35;;;0.50;;
78344;SDS011;67620;51.134;6.548;2023-07-13T08:37:59;0.90;;;0.60;;
78344;SDS011;67620;51.134;6.548;2023-07-13T08:40:25;1.38;;;0.60;;
78344;SDS011;67620;51.134;6.548;2023-07-13T08:42:54;0.88;;;0.43;;
78344;SDS011;67620;51.134;6.548;2023-07-13T08:45:22;1.50;;;0.50;;
78344;SDS011;67620;51.134;6.548;2023-07-13T08:47:54;1.15;;;0.60;;
78344;SDS011;67620;51.134;6.548;2023-07-13T08:50:28;0.80;;;0.50;;
78344;SDS011;67620;51.134;6.548;2023-07-13T08:53:01;0.88;;;0.50;;
78344;SDS011;67620;51.134;6.548;2023-07-13T08:55:29;1.00;;;0.60;;
78344;SDS011;67620;51.134;6.548;2023-07-13T08:58:31;0.90;;;0.60;;
78344;SDS011;67620;51.134;6.548;2023-07-13T09:15:23;0.98;;;0.60;;
78344;SDS011;67620;51.134;6.548;2023-07-13T09:17:50;1.00;;;0.60;;
78344;SDS011;67620;51.134;6.548;2023-07-13T09:20:23;1.13;;;0.77;;
78344;SDS011;67620;51.134;6.548;2023-07-13T09:22:53;0.90;;;0.60;;
78344;SDS011;67620;51.134;6.548;2023-07-13T09:25:24;0.90;;;0.50;;
78344;SDS011;67620;51.134;6.548;2023-07-13T09:28:02;0.93;;;0.57;;
78344;SDS011;67620;51.134;6.548;2023-07-13T09:30:39;1.40;;;0.70;;
78344;SDS011;67620;51.134;6.548;2023-07-13T09:33:10;0.77;;;0.40;;
78344;SDS011;67620;51.134;6.548;2023-07-13T09:35:36;1.20;;;0.60;;
78344;SDS011;67620;51.134;6.548;2023-07-13T09:38:10;1.13;;;0.60;;
78344;SDS011;67620;51.134;6.548;2023-07-13T09:40:40;0.75;;;0.45;;
78344;SDS011;67620;51.134;6.548;2023-07-13T09:43:14;1.60;;;0.85;;
78344;SDS011;67620;51.134;6.548;2023-07-13T09:45:41;0.98;;;0.55;;
78344;SDS011;67620;51.134;6.548;2023-07-13T09:48:12;1.05;;;0.60;;
78344;SDS011;67620;51.134;6.548;2023-07-13T09:50:39;0.90;;;0.45;;
78344;SDS011;67620;51.134;6.548;2023-07-13T09:53:11;0.95;;;0.50;;
78344;SDS011;67620;51.134;6.548;2023-07-13T09:58:04;0.93;;;0.50;;
78344;SDS011;67620;51.134;6.548;2023-07-13T10:00:39;0.80;;;0.50;;
78344;SDS011;67620;51.134;6.548;2023-07-13T10:03:22;0.98;;;0.52;;
78344;SDS011;67620;51.134;6.548;2023-07-13T10:05:53;1.25;;;0.57;;
78344;SDS011;67620;51.134;6.548;2023-07-13T10:08:24;0.90;;;0.60;;
78344;SDS011;67620;51.134;6.548;2023-07-13T10:11:08;0.80;;;0.50;;
78344;SDS011;67620;51.134;6.548;2023-07-13T10:13:36;0.88;;;0.47;;
78344;SDS011;67620;51.134;6.548;2023-07-13T10:16:07;0.68;;;0.40;;
78344;SDS011;67620;51.134;6.548;2023-07-13T10:18:38;1.35;;;0.65;;
78344;SDS011;67620;51.134;6.548;2023-07-13T10:23:42;0.80;;;0.50;;
78344;SDS011;67620;51.134;6.548;2023-07-13T10:26:16;0.80;;;0.60;;
78344;SDS011;67620;51.134;6.548;2023-07-13T10:28:48;0.95;;;0.50;;
78344;SDS011;67620;51.134;6.548;2023-07-13T10:31:18;1.23;;;0.63;;
78344;SDS011;67620;51.134;6.548;2023-07-13T10:33:45;1.45;;;0.75;;
78344;SDS011;67620;51.134;6.548;2023-07-13T10:36:53;0.88;;;0.40;;
78344;SDS011;67620;51.134;6.548;2023-07-13T10:39:14;0.80;;;0.50;;
78344;SDS011;67620;51.134;6.548;2023-07-13T10:41:43;0.63;;;0.40;;
78344;SDS011;67620;51.134;6.548;2023-07-13T10:44:18;1.67;;;0.50;;
78344;SDS011;67620;51.134;6.548;2023-07-13T10:46:50;0.73;;;0.50;;
78344;SDS011;67620;51.134;6.548;2023-07-13T10:49:21;1.30;;;0.60;;
78344;SDS011;67620;51.134;6.548;2023-07-13T10:51:48;1.30;;;0.60;;
78344;SDS011;67620;51.134;6.548;2023-07-13T10:56:44;0.85;;;0.50;;
78344;SDS011;67620;51.134;6.548;2023-07-13T10:59:13;0.80;;;0.47;;
78344;SDS011;67620;51.134;6.548;2023-07-13T11:01:57;0.95;;;0.50;;
78344;SDS011;67620;51.134;6.548;2023-07-13T11:04:27;0.77;;;0.50;;
78344;SDS011;67620;51.134;6.548;2023-07-13T11:07:10;1.25;;;0.47;;
78344;SDS011;67620;51.134;6.548;2023-07-13T11:09:49;1.30;;;0.70;;
78344;SDS011;67620;51.134;6.548;2023-07-13T11:19:53;0.70;;;0.43;;
78344;SDS011;67620;51.134;6.548;2023-07-13T11:22:23;1.33;;;0.60;;
78344;SDS011;67620;51.134;6.548;2023-07-13T11:24:57;0.90;;;0.60;;
78344;SDS011;67620;51.134;6.548;2023-07-13T11:32:49;0.90;;;0.32;;
78344;SDS011;67620;51.134;6.548;2023-07-13T11:35:26;1.40;;;0.50;;
78344;SDS011;67620;51.134;6.548;2023-07-13T11:37:52;0.80;;;0.50;;
78344;SDS011;67620;51.134;6.548;2023-07-13T11:40:18;0.73;;;0.40;;
78344;SDS011;67620;51.134;6.548;2023-07-13T11:42:47;0.70;;;0.43;;
78344;SDS011;67620;51.134;6.548;2023-07-13T11:45:22;0.88;;;0.60;;
78344;SDS011;67620;51.134;6.548;2023-07-13T11:47:48;0.85;;;0.50;;
78344;SDS011;67620;51.134;6.548;2023-07-13T11:50:21;0.82;;;0.40;;
78344;SDS011;67620;51.134;6.548;2023-07-13T11:52:49;1.10;;;0.60;;
78344;SDS011;67620;51.134;6.548;2023-07-13T11:55:17;0.98;;;0.50;;
78344;SDS011;67620;51.134;6.548;2023-07-13T11:57:49;0.80;;;0.50;;
78344;SDS011;67620;51.134;6.548;2023-07-13T12:00:25;0.70;;;0.50;;
78344;SDS011;67620;51.134;6.548;2023-07-13T12:02:55;0.98;;;0.50;;
78344;SDS011;67620;51.134;6.548;2023-07-13T12:05:24;1.27;;;0.50;;
78344;SDS011;67620;51.134;6.548;2023-07-13T12:07:50;1.00;;;0.40;;
78344;SDS011;67620;51.134;6.548;2023-07-13T12:10:28;0.90;;;0.50;;
78344;SDS011;67620;51.134;6.548;2023-07-13T12:12:56;0.70;;;0.40;;
78344;SDS011;67620;51.134;6.548;2023-07-13T12:15:32;0.90;;;0.50;;
78344;SDS011;67620;51.134;6.548;2023-07-13T12:18:09;0.90;;;0.50;;
78344;SDS011;67620;51.134;6.548;2023-07-13T12:20:40;1.08;;;0.52;;
78344;SDS011;67620;51.134;6.548;2023-07-13T12:23:10;0.85;;;0.50;;
78344;SDS011;67620;51.134;6.548;2023-07-13T12:26:04;1.17;;;0.57;;
78344;SDS011;67620;51.134;6.548;2023-07-13T12:28:38;1.00;;;0.50;;
78344;SDS011;67620;51.134;6.548;2023-07-13T12:31:33;0.90;;;0.50;;
78344;SDS011;67620;51.134;6.548;2023-07-13T12:36:35;0.82;;;0.50;;
78344;SDS011;67620;51.134;6.548;2023-07-13T12:39:11;1.08;;;0.63;;
78344;SDS011;67620;51.134;6.548;2023-07-13T12:41:43;0.95;;;0.55;;
78344;SDS011;67620;51.134;6.548;2023-07-13T12:44:17;0.70;;;0.50;;
78344;SDS011;67620;51.134;6.548;2023-07-13T12:46:52;0.88;;;0.50;;
78344;SDS011;67620;51.134;6.548;2023-07-13T12:49:21;0.88;;;0.50;;
78344;SDS011;67620;51.134;6.548;2023-07-13T12:51:50;1.10;;;0.50;;
78344;SDS011;67620;51.134;6.548;2023-07-13T12:54:17;1.00;;;0.40;;
78344;SDS011;67620;51.134;6.548;2023-07-13T12:56:43;0.73;;;0.47;;
78344;SDS011;67620;51.134;6.548;2023-07-13T12:59:16;0.70;;;0.47;;
78344;SDS011;67620;51.134;6.548;2023-07-13T13:01:45;0.65;;;0.35;;
78344;SDS011;67620;51.134;6.548;2023-07-13T13:04:11;0.70;;;0.40;;
78344;SDS011;67620;51.134;6.548;2023-07-13T13:06:38;0.73;;;0.40;;
78344;SDS011;67620;51.134;6.548;2023-07-13T13:09:09;0.90;;;0.50;;
78344;SDS011;67620;51.134;6.548;2023-07-13T13:11:38;1.20;;;0.55;;
78344;SDS011;67620;51.134;6.548;2023-07-13T13:14:05;0.73;;;0.43;;
78344;SDS011;67620;51.134;6.548;2023-07-13T13:16:32;0.77;;;0.43;;
78344;SDS011;67620;51.134;6.548;2023-07-13T13:19:13;1.02;;;0.60;;
78344;SDS011;67620;51.134;6.548;2023-07-13T13:21:47;0.85;;;0.50;;
78344;SDS011;67620;51.134;6.548;2023-07-13T13:24:18;1.23;;;0.50;;
78344;SDS011;67620;51.134;6.548;2023-07-13T13:26:46;0.85;;;0.47;;
78344;SDS011;67620;51.134;6.548;2023-07-13T13:29:14;0.82;;;0.40;;
78344;SDS011;67620;51.134;6.548;2023-07-13T13:31:40;0.85;;;0.47;;
78344;SDS011;67620;51.134;6.548;2023-07-13T13:34:09;1.00;;;0.50;;
78344;SDS011;67620;51.134;6.548;2023-07-13T13:36:36;0.75;;;0.45;;
78344;SDS011;67620;51.134;6.548;2023-07-13T13:39:05;0.80;;;0.40;;
78344;SDS011;67620;51.134;6.548;2023-07-13T13:41:41;0.43;;;0.30;;
78344;SDS011;67620;51.134;6.548;2023-07-13T13:44:08;0.70;;;0.40;;
78344;SDS011;67620;51.134;6.548;2023-07-13T13:46:35;0.82;;;0.45;;
78344;SDS011;67620;51.134;6.548;2023-07-13T13:49:01;0.47;;;0.30;;
78344;SDS011;67620;51.134;6.548;2023-07-13T13:51:27;0.73;;;0.50;;
78344;SDS011;67620;51.134;6.548;2023-07-13T13:53:54;0.77;;;0.40;;
78344;SDS011;67620;51.134;6.548;2023-07-13T13:56:19;0.90;;;0.40;;
78344;SDS011;67620;51.134;6.548;2023-07-13T13:58:46;0.75;;;0.40;;
78344;SDS011;67620;51.134;6.548;2023-07-13T14:01:12;0.38;;;0.30;;
78344;SDS011;67620;51.134;6.548;2023-07-13T14:03:41;0.77;;;0.50;;
78344;SDS011;67620;51.134;6.548;2023-07-13T14:06:11;0.90;;;0.50;;
78344;SDS011;67620;51.134;6.548;2023-07-13T14:08:40;0.52;;;0.40;;
78344;SDS011;67620;51.134;6.548;2023-07-13T14:11:07;0.50;;;0.40;;
78344;SDS011;67620;51.134;6.548;2023-07-13T14:13:41;0.90;;;0.50;;
78344;SDS011;67620;51.134;6.548;2023-07-13T14:16:12;0.68;;;0.45;;
78344;SDS011;67620;51.134;6.548;2023-07-13T14:18:46;0.55;;;0.40;;
78344;SDS011;67620;51.134;6.548;2023-07-13T14:21:17;0.93;;;0.50;;
78344;SDS011;67620;51.134;6.548;2023-07-13T14:23:44;0.57;;;0.40;;
78344;SDS011;67620;51.134;6.548;2023-07-13T14:26:20;0.90;;;0.43;;
78344;SDS011;67620;51.134;6.548;2023-07-13T14:28:49;0.95;;;0.40;;
78344;SDS011;67620;51.134;6.548;2023-07-13T14:31:17;1.25;;;0.50;;
78344;SDS011;67620;51.134;6.548;2023-07-13T14:33:44;0.60;;;0.40;;
78344;SDS011;67620;51.134;6.548;2023-07-13T14:36:52;0.65;;;0.50;;
78344;SDS011;67620;51.134;6.548;2023-07-13T14:39:09;0.80;;;0.40;;
78344;SDS011;67620;51.134;6.548;2023-07-13T14:41:43;0.52;;;0.40;;
78344;SDS011;67620;51.134;6.548;2023-07-13T14:44:15;0.98;;;0.68;;
78344;SDS011;67620;51.134;6.548;2023-07-13T14:46:42;0.70;;;0.43;;
78344;SDS011;67620;51.134;6.548;2023-07-13T14:52:18;0.43;;;0.32;;
78344;SDS011;67620;51.134;6.548;2023-07-13T14:54:45;0.70;;;0.40;;
78344;SDS011;67620;51.134;6.548;2023-07-13T14:57:12;0.82;;;0.50;;
78344;SDS011;67620;51.134;6.548;2023-07-13T14:59:39;0.80;;;0.50;;
78344;SDS011;67620;51.134;6.548;2023-07-13T15:02:16;0.80;;;0.43;;
78344;SDS011;67620;51.134;6.548;2023-07-13T15:04:58;0.77;;;0.47;;
78344;SDS011;67620;51.134;6.548;2023-07-13T15:07:24;0.95;;;0.50;;
78344;SDS011;67620;51.134;6.548;2023-07-13T15:09:49;0.90;;;0.40;;
78344;SDS011;67620;51.134;6.548;2023-07-13T15:12:16;0.60;;;0.30;;
78344;SDS011;67620;51.134;6.548;2023-07-13T15:14:41;0.90;;;0.50;;
78344;SDS011;67620;51.134;6.548;2023-07-13T15:17:17;0.57;;;0.40;;
78344;SDS011;67620;51.134;6.548;2023-07-13T15:19:55;0.70;;;0.40;;
78344;SDS011;67620;51.134;6.548;2023-07-13T15:22:21;0.85;;;0.43;;
78344;SDS011;67620;51.134;6.548;2023-07-13T15:24:46;0.68;;;0.40;;
78344;SDS011;67620;51.134;6.548;2023-07-13T15:27:12;0.60;;;0.30;;
78344;SDS011;67620;51.134;6.548;2023-07-13T15:29:38;0.85;;;0.40;;
78344;SDS011;67620;51.134;6.548;2023-07-13T15:32:09;0.60;;;0.40;;
78344;SDS011;67620;51.134;6.548;2023-07-13T15:34:38;0.68;;;0.40;;
78344;SDS011;67620;51.134;6.548;2023-07-13T15:37:04;1.30;;;0.50;;
78344;SDS011;67620;51.134;6.548;2023-07-13T15:39:35;0.60;;;0.40;;